createdAt,value
2019-04-16T00:00:49.870Z,10.41
2019-04-16T00:03:20.267Z,10.37
2019-04-16T00:06:07.149Z,10.30
2019-04-16T00:08:40.904Z,10.24
2019-04-16T00:11:14.072Z,10.16
2019-04-16T00:13:44.923Z,10.07
2019-04-16T00:16:14.497Z,9.99
2019-04-16T00:18:56.636Z,9.90
2019-04-16T00:21:16.482Z,9.78
2019-04-16T00:23:59.388Z,9.74
2019-04-16T00:26:28.721Z,9.67
2019-04-16T00:29:01.577Z,9.62
2019-04-16T00:31:29.268Z,9.57
2019-04-16T00:33:59.888Z,9.53
2019-04-16T00:36:29.294Z,9.48
2019-04-16T00:38:58.634Z,9.43
2019-04-16T00:41:28.300Z,9.40
2019-04-16T00:43:57.722Z,9.36
2019-04-16T00:46:27.127Z,9.32
2019-04-16T00:48:56.454Z,9.29
2019-04-16T00:51:25.794Z,9.23
2019-04-16T00:53:55.353Z,9.24
2019-04-16T00:56:24.697Z,9.19
2019-04-16T00:58:54.029Z,9.14
2019-04-16T01:01:23.434Z,9.17
2019-04-16T01:03:52.761Z,9.11
2019-04-16T01:06:22.095Z,9.14
2019-04-16T01:08:54.979Z,9.10
2019-04-16T01:11:22.506Z,9.07
2019-04-16T01:13:53.236Z,9.05
2019-04-16T01:16:23.468Z,9.00
2019-04-16T01:18:54.065Z,9.04
2019-04-16T01:21:23.400Z,9.06
2019-04-16T01:23:52.734Z,9.03
2019-04-16T01:26:24.244Z,9.04
2019-04-16T01:29:02.949Z,9.03
2019-04-16T01:31:32.827Z,9.02
2019-04-16T01:34:06.558Z,8.99
2019-04-16T01:36:56.046Z,8.97
2019-04-16T01:39:27.018Z,8.90
2019-04-16T01:41:56.358Z,8.87
2019-04-16T01:44:28.537Z,8.80
2019-04-16T01:46:56.757Z,8.78
2019-04-16T01:49:26.092Z,8.74
2019-04-16T01:51:55.427Z,8.71
2019-04-16T01:54:24.761Z,8.67
2019-04-16T01:56:54.097Z,8.61
2019-04-16T01:59:23.630Z,8.61
2019-04-16T02:01:52.998Z,8.62
2019-04-16T02:04:22.335Z,8.58
2019-04-16T02:06:54.321Z,8.55
2019-04-16T02:09:23.228Z,8.51
2019-04-16T02:11:52.809Z,8.48
2019-04-16T02:14:22.468Z,8.48
2019-04-16T02:16:55.769Z,8.42
2019-04-16T02:19:22.931Z,8.37
2019-04-16T02:21:52.272Z,8.33
2019-04-16T02:24:21.877Z,8.28
2019-04-16T02:26:54.571Z,8.23
2019-04-16T02:29:22.258Z,8.18
2019-04-16T02:31:52.548Z,8.13
2019-04-16T02:34:22.010Z,8.10
2019-04-16T02:36:51.329Z,8.05
2019-04-16T02:39:25.585Z,8.00
2019-04-16T02:41:56.760Z,7.97
2019-04-16T02:44:22.844Z,7.94
2019-04-16T02:46:52.201Z,7.92
2019-04-16T02:49:24.521Z,7.91
2019-04-16T02:52:00.212Z,7.91
2019-04-16T02:54:33.923Z,7.90
2019-04-16T02:57:06.616Z,7.86
2019-04-16T02:59:46.018Z,7.83
2019-04-16T03:02:15.264Z,7.74
2019-04-16T03:04:45.478Z,7.69
2019-04-16T03:07:14.847Z,7.73
2019-04-16T03:09:44.262Z,7.75
2019-04-16T03:12:13.690Z,7.75
2019-04-16T03:14:43.295Z,7.76
2019-04-16T03:17:23.309Z,7.75
2019-04-16T03:19:54.225Z,7.71
2019-04-16T03:22:23.844Z,7.68
2019-04-16T03:24:53.194Z,7.66
2019-04-16T03:27:23.026Z,7.65
2019-04-16T03:29:52.451Z,7.63
2019-04-16T03:32:22.084Z,7.62
2019-04-16T03:34:53.344Z,7.58
2019-04-16T03:37:22.553Z,7.57
2019-04-16T03:39:51.882Z,7.53
2019-04-16T03:42:21.233Z,7.48
2019-04-16T03:44:50.589Z,7.44
2019-04-16T03:47:20.040Z,7.40
2019-04-16T03:49:49.467Z,7.36
2019-04-16T03:52:18.823Z,7.33
2019-04-16T03:54:48.293Z,7.25
2019-04-16T03:57:17.647Z,7.18
2019-04-16T03:59:46.979Z,7.14
2019-04-16T04:02:22.030Z,7.11
2019-04-16T04:04:47.837Z,7.04
2019-04-16T04:07:17.521Z,7.01
2019-04-16T04:09:47.085Z,6.99
2019-04-16T04:12:16.462Z,6.96
2019-04-16T04:14:45.821Z,6.95
2019-04-16T04:17:15.521Z,6.86
2019-04-16T04:19:46.136Z,6.79
2019-04-16T04:22:16.253Z,6.75
2019-04-16T04:24:45.641Z,6.69
2019-04-16T04:27:18.784Z,6.68
2019-04-16T04:29:46.584Z,6.63
2019-04-16T04:32:17.333Z,6.57
2019-04-16T04:34:48.771Z,6.55
2019-04-16T04:37:17.703Z,6.50
2019-04-16T04:39:47.079Z,6.47
2019-04-16T04:42:18.974Z,6.44
2019-04-16T04:44:47.704Z,6.40
2019-04-16T04:47:19.385Z,6.36
2019-04-16T04:49:48.121Z,6.31
2019-04-16T04:52:17.453Z,6.26
2019-04-16T04:54:47.150Z,6.23
2019-04-16T04:57:16.479Z,6.16
2019-04-16T04:59:46.185Z,6.11
2019-04-16T05:02:15.948Z,6.08
2019-04-16T05:04:52.488Z,6.03
2019-04-16T05:07:20.993Z,6.00
2019-04-16T05:09:50.350Z,6.00
2019-04-16T05:12:21.348Z,6.00
2019-04-16T05:14:57.512Z,6.00
2019-04-16T05:17:24.307Z,5.95
2019-04-16T05:19:53.641Z,5.95
2019-04-16T05:22:23.074Z,5.98
2019-04-16T05:24:52.399Z,6.00
2019-04-16T05:27:21.731Z,6.02
2019-04-16T05:29:51.381Z,6.05
2019-04-16T05:32:20.732Z,6.08
2019-04-16T05:34:50.318Z,6.11
2019-04-16T05:37:20.854Z,6.18
2019-04-16T05:39:50.309Z,6.22
2019-04-16T05:42:22.419Z,6.24
2019-04-16T05:44:51.011Z,6.28
2019-04-16T05:47:20.343Z,6.35
2019-04-16T05:49:49.682Z,6.39
2019-04-16T05:52:19.042Z,6.44
2019-04-16T05:54:56.498Z,6.52
2019-04-16T05:57:27.673Z,6.58
2019-04-16T05:59:58.082Z,6.70
2019-04-16T06:02:29.056Z,6.76
2019-04-16T06:04:58.401Z,6.84
2019-04-16T06:07:27.738Z,6.91
2019-04-16T06:09:57.431Z,6.96
2019-04-16T06:12:28.399Z,7.00
2019-04-16T06:15:05.657Z,7.04
2019-04-16T06:17:53.483Z,7.13
2019-04-16T06:20:24.493Z,7.17
2019-04-16T06:23:01.001Z,7.23
2019-04-16T06:25:47.534Z,7.32
2019-04-16T06:28:24.471Z,7.49
2019-04-16T06:31:05.084Z,7.83
2019-04-16T06:33:51.341Z,7.74
2019-04-16T06:36:31.286Z,7.73
2019-04-16T06:39:17.379Z,7.74
2019-04-16T06:41:48.592Z,7.78
2019-04-16T06:44:22.339Z,7.83
2019-04-16T06:46:55.518Z,7.90
2019-04-16T06:49:34.521Z,7.94
2019-04-16T06:52:23.080Z,8.04
2019-04-16T06:54:56.913Z,8.09
2019-04-16T06:57:27.886Z,8.13
2019-04-16T06:59:59.462Z,8.26
2019-04-16T07:03:01.382Z,8.29
2019-04-16T07:05:33.221Z,8.33
2019-04-16T07:08:10.000Z,8.44
2019-04-16T07:10:49.953Z,8.48
2019-04-16T07:13:19.574Z,8.58
2019-04-16T07:15:49.142Z,8.72
2019-04-16T07:18:20.714Z,8.75
2019-04-16T07:20:49.755Z,8.79
2019-04-16T07:23:24.297Z,8.89
2019-04-16T07:25:50.287Z,8.97
2019-04-16T07:28:33.404Z,9.02
2019-04-16T07:31:13.192Z,9.10
2019-04-16T07:34:00.512Z,9.18
2019-04-16T07:36:43.513Z,9.27
2019-04-16T07:39:37.273Z,9.40
2019-04-16T07:42:10.747Z,9.45
2019-04-16T07:44:39.228Z,9.56
2019-04-16T07:47:10.559Z,9.58
2019-04-16T07:49:50.637Z,9.65
2019-04-16T07:52:27.323Z,9.72
2019-04-16T07:55:14.758Z,9.82
2019-04-16T07:57:44.384Z,9.94
2019-04-16T08:00:14.664Z,10.00
2019-04-16T08:02:44.005Z,10.13
2019-04-16T08:05:13.435Z,10.22
2019-04-16T08:07:42.785Z,10.30
2019-04-16T08:10:13.062Z,10.38
2019-04-16T08:12:44.067Z,10.45
2019-04-16T08:15:15.352Z,10.50
2019-04-16T08:17:44.809Z,10.59
2019-04-16T08:20:14.316Z,10.66
2019-04-16T08:22:47.562Z,10.73
2019-04-16T08:25:17.967Z,10.83
2019-04-16T08:27:50.592Z,10.91
2019-04-16T08:30:18.744Z,10.96
2019-04-16T08:32:48.981Z,11.10
2019-04-16T08:35:19.027Z,11.22
2019-04-16T08:37:49.551Z,11.28
2019-04-16T08:40:19.049Z,11.38
2019-04-16T08:42:48.731Z,11.42
2019-04-16T08:45:20.622Z,11.52
2019-04-16T08:47:49.105Z,11.61
2019-04-16T08:50:18.744Z,11.67
2019-04-16T08:52:48.103Z,11.76
2019-04-16T08:55:20.502Z,11.84
2019-04-16T08:57:48.712Z,11.92
2019-04-16T09:00:18.130Z,12.02
2019-04-16T09:02:47.807Z,12.12
2019-04-16T09:05:17.175Z,12.21
2019-04-16T09:07:50.654Z,12.35
2019-04-16T09:10:23.562Z,12.47
2019-04-16T09:13:02.350Z,12.69
2019-04-16T09:15:29.074Z,12.69
2019-04-16T09:18:14.997Z,12.75
2019-04-16T09:20:46.411Z,12.87
2019-04-16T09:23:15.774Z,12.96
2019-04-16T09:26:13.048Z,13.06
2019-04-16T09:28:48.000Z,13.11
2019-04-16T09:31:34.349Z,13.21
2019-04-16T09:34:11.651Z,13.34
2019-04-16T09:36:58.974Z,13.45
2019-04-16T09:39:32.643Z,13.61
2019-04-16T09:42:01.277Z,13.68
2019-04-16T09:44:33.731Z,13.72
2019-04-16T09:47:04.921Z,13.83
2019-04-16T09:49:34.414Z,14.00
2019-04-16T09:52:05.269Z,14.24
2019-04-16T09:54:34.635Z,14.65
2019-04-16T09:57:04.023Z,14.52
2019-04-16T09:59:44.778Z,14.54
2019-04-16T10:02:19.239Z,14.60
2019-04-16T10:04:47.870Z,14.68
2019-04-16T10:07:17.293Z,14.78
2019-04-16T10:09:46.670Z,15.03
2019-04-16T10:12:16.039Z,15.04
2019-04-16T10:14:45.491Z,15.07
2019-04-16T10:17:14.847Z,15.18
2019-04-16T10:19:44.212Z,15.27
2019-04-16T10:22:13.803Z,15.34
2019-04-16T10:25:02.874Z,15.48
2019-04-16T10:27:34.201Z,15.60
2019-04-16T10:30:06.421Z,15.74
2019-04-16T10:32:36.060Z,15.81
2019-04-16T10:35:05.837Z,15.92
2019-04-16T10:37:35.188Z,16.01
2019-04-16T10:40:23.076Z,16.12
2019-04-16T10:43:09.272Z,16.27
2019-04-16T10:45:55.402Z,16.40
2019-04-16T10:48:28.747Z,16.55
2019-04-16T10:51:08.651Z,16.68
2019-04-16T10:53:45.649Z,16.84
2019-04-16T10:56:22.524Z,16.98
2019-04-16T10:58:56.183Z,17.18
2019-04-16T11:01:30.352Z,17.30
2019-04-16T11:04:08.656Z,17.35
2019-04-16T11:06:42.401Z,17.42
2019-04-16T11:09:12.016Z,17.59
2019-04-16T11:11:41.459Z,17.86
2019-04-16T11:14:10.806Z,18.18
2019-04-16T11:16:41.864Z,18.58
2019-04-16T11:19:11.467Z,18.98
2019-04-16T11:21:41.090Z,19.57
2019-04-16T11:24:10.433Z,20.18
2019-04-16T11:26:39.731Z,20.80
2019-04-16T11:29:09.205Z,21.40
2019-04-16T11:31:39.773Z,21.96
2019-04-16T11:34:10.212Z,22.59
2019-04-16T11:36:39.685Z,23.10
2019-04-16T11:39:10.379Z,23.66
2019-04-16T11:41:40.063Z,24.16
2019-04-16T11:44:16.180Z,24.57
2019-04-16T11:46:40.480Z,24.92
2019-04-16T11:49:09.932Z,25.34
2019-04-16T11:51:39.273Z,25.81
2019-04-16T11:54:11.808Z,25.98
2019-04-16T11:56:43.241Z,26.11
2019-04-16T11:59:13.061Z,26.76
2019-04-16T12:01:44.057Z,27.29
2019-04-16T12:04:21.006Z,27.71
2019-04-16T12:07:10.132Z,28.12
2019-04-16T12:09:42.087Z,28.54
2019-04-16T12:12:13.073Z,28.77
2019-04-16T12:14:44.062Z,28.96
2019-04-16T12:17:30.137Z,29.36
2019-04-16T12:20:17.655Z,29.45
2019-04-16T12:22:57.895Z,29.97
2019-04-16T12:25:44.002Z,30.26
2019-04-16T12:28:31.107Z,30.61
2019-04-16T12:31:19.991Z,30.68
2019-04-16T12:33:51.210Z,30.88
2019-04-16T12:36:33.899Z,31.25
2019-04-16T12:39:18.799Z,31.31
2019-04-16T12:41:54.466Z,31.67
2019-04-16T12:44:45.200Z,30.90
2019-04-16T12:47:06.919Z,30.96
2019-04-16T12:49:43.916Z,31.62
2019-04-16T12:52:31.119Z,31.79
2019-04-16T12:55:11.159Z,31.76
2019-04-16T12:57:47.324Z,31.92
2019-04-16T13:00:33.054Z,32.03
2019-04-16T13:03:18.502Z,32.30
2019-04-16T13:06:07.400Z,32.37
2019-04-16T13:08:47.946Z,32.72
2019-04-16T13:11:27.805Z,32.90
2019-04-16T13:14:07.476Z,33.04
2019-04-16T13:16:47.417Z,33.10
2019-04-16T13:19:34.587Z,32.79
2019-04-16T13:22:05.683Z,32.47
2019-04-16T13:24:36.839Z,32.97
2019-04-16T13:27:10.534Z,33.25
2019-04-16T13:29:39.897Z,33.39
2019-04-16T13:32:09.436Z,32.39
2019-04-16T13:34:38.743Z,32.35
2019-04-16T13:37:08.114Z,32.61
2019-04-16T13:39:42.033Z,32.71
2019-04-16T13:42:11.664Z,32.78
2019-04-16T13:44:42.650Z,32.89
2019-04-16T13:47:12.025Z,33.07
2019-04-16T13:50:03.293Z,33.08
2019-04-16T13:52:32.630Z,33.01
2019-04-16T13:55:12.609Z,32.43
2019-04-16T13:57:43.655Z,31.99
2019-04-16T14:00:15.370Z,31.81
2019-04-16T14:02:47.846Z,31.90
2019-04-16T14:05:17.855Z,32.00
2019-04-16T14:07:47.235Z,32.02
2019-04-16T14:10:16.597Z,31.96
2019-04-16T14:12:45.933Z,31.49
2019-04-16T14:15:30.829Z,31.25
2019-04-16T14:17:52.867Z,31.40
2019-04-16T14:20:18.412Z,31.14
2019-04-16T14:22:47.835Z,30.76
2019-04-16T14:25:17.556Z,30.34
2019-04-16T14:27:46.911Z,30.16
2019-04-16T14:30:20.891Z,30.26
2019-04-16T14:32:50.458Z,30.00
2019-04-16T14:35:32.909Z,29.66
2019-04-16T14:37:53.465Z,29.54
2019-04-16T14:40:24.703Z,29.63
2019-04-16T14:42:57.563Z,29.56
2019-04-16T14:45:27.782Z,29.32
2019-04-16T14:47:57.749Z,29.15
2019-04-16T14:50:27.067Z,28.90
2019-04-16T14:52:56.403Z,28.76
2019-04-16T14:55:33.207Z,27.99
2019-04-16T14:58:09.810Z,27.99
2019-04-16T15:00:52.972Z,28.01
2019-04-16T15:03:26.860Z,27.52
2019-04-16T15:05:57.836Z,27.56
2019-04-16T15:08:37.866Z,27.65
2019-04-16T15:11:24.530Z,27.25
2019-04-16T15:14:11.487Z,27.04
2019-04-16T15:16:50.789Z,26.81
2019-04-16T15:19:29.614Z,26.89
2019-04-16T15:22:18.525Z,26.89
2019-04-16T15:24:49.485Z,26.80
2019-04-16T15:27:20.486Z,26.71
2019-04-16T15:29:52.526Z,26.32
2019-04-16T15:32:36.310Z,26.12
2019-04-16T15:35:07.273Z,26.10
2019-04-16T15:37:38.261Z,26.02
2019-04-16T15:40:09.598Z,25.92
2019-04-16T15:42:56.651Z,25.62
2019-04-16T15:45:37.136Z,25.65
2019-04-16T15:48:22.878Z,25.20
2019-04-16T15:50:53.899Z,24.84
2019-04-16T15:53:30.869Z,24.90
2019-04-16T15:56:07.286Z,24.91
2019-04-16T15:58:44.194Z,24.69
2019-04-16T16:01:15.207Z,24.64
2019-04-16T16:04:02.221Z,24.14
2019-04-16T16:06:33.416Z,24.19
2019-04-16T16:09:20.279Z,24.28
2019-04-16T16:11:51.895Z,24.13
2019-04-16T16:14:21.195Z,24.03
2019-04-16T16:16:51.589Z,23.65
2019-04-16T16:19:20.894Z,23.58
2019-04-16T16:21:50.259Z,23.61
2019-04-16T16:24:19.563Z,23.52
2019-04-16T16:26:48.957Z,23.35
2019-04-16T16:29:18.254Z,23.41
2019-04-16T16:31:47.631Z,23.39
2019-04-16T16:34:16.985Z,23.29
2019-04-16T16:36:46.578Z,23.14
2019-04-16T16:39:15.907Z,23.15
2019-04-16T16:41:46.696Z,23.13
2019-04-16T16:44:16.162Z,22.98
2019-04-16T16:46:56.643Z,22.91
2019-04-16T16:49:18.166Z,22.76
2019-04-16T16:51:52.058Z,22.71
2019-04-16T16:54:25.460Z,22.69
2019-04-16T16:57:13.662Z,22.53
2019-04-16T16:59:44.500Z,22.33
2019-04-16T17:02:27.572Z,22.26
2019-04-16T17:04:58.589Z,22.13
2019-04-16T17:07:27.952Z,21.91
2019-04-16T17:09:57.327Z,21.83
2019-04-16T17:12:26.686Z,21.81
2019-04-16T17:14:56.045Z,21.73
2019-04-16T17:17:25.618Z,21.72
2019-04-16T17:19:55.224Z,21.57
2019-04-16T17:22:24.829Z,21.48
2019-04-16T17:24:54.539Z,21.25
2019-04-16T17:27:24.145Z,21.20
2019-04-16T17:29:53.591Z,20.90
2019-04-16T17:32:23.618Z,20.77
2019-04-16T17:34:53.640Z,20.37
2019-04-16T17:37:27.839Z,20.31
2019-04-16T17:39:54.864Z,20.34
2019-04-16T17:42:28.494Z,20.13
2019-04-16T17:44:59.473Z,20.07
2019-04-16T17:47:33.493Z,20.12
2019-04-16T17:50:04.978Z,19.81
2019-04-16T17:52:35.964Z,19.69
2019-04-16T17:55:07.630Z,19.29
2019-04-16T17:57:50.452Z,19.23
2019-04-16T18:00:34.617Z,19.20
2019-04-16T18:03:17.722Z,19.09
2019-04-16T18:05:54.519Z,19.04
2019-04-16T18:08:34.817Z,19.00
2019-04-16T18:11:09.740Z,19.04
2019-04-16T18:13:44.790Z,18.95
2019-04-16T18:16:19.809Z,18.98
2019-04-16T18:18:50.935Z,18.81
2019-04-16T18:21:21.908Z,18.70
2019-04-16T18:24:01.310Z,18.73
2019-04-16T18:26:33.273Z,18.75
2019-04-16T18:29:06.652Z,18.62
2019-04-16T18:31:40.557Z,18.52
2019-04-16T18:34:11.541Z,18.33
2019-04-16T18:36:42.779Z,18.14
2019-04-16T18:39:19.507Z,18.24
2019-04-16T18:41:50.471Z,18.24
2019-04-16T18:44:36.055Z,18.09
2019-04-16T18:47:22.980Z,17.96
2019-04-16T18:49:54.543Z,17.85
2019-04-16T18:52:23.916Z,17.75
2019-04-16T18:54:53.517Z,17.67
2019-04-16T18:57:22.850Z,17.62
2019-04-16T18:59:52.544Z,17.57
2019-04-16T19:02:23.371Z,17.50
2019-04-16T19:04:52.738Z,17.52
2019-04-16T19:07:22.093Z,17.45
2019-04-16T19:09:51.428Z,17.44
2019-04-16T19:12:21.028Z,17.55
2019-04-16T19:14:50.458Z,17.54
2019-04-16T19:17:19.801Z,17.48
2019-04-16T19:19:49.150Z,17.49
2019-04-16T19:22:18.565Z,17.36
2019-04-16T19:24:47.910Z,17.36
2019-04-16T19:27:17.269Z,17.27
2019-04-16T19:29:46.829Z,17.26
2019-04-16T19:32:16.168Z,17.19
2019-04-16T19:34:45.592Z,17.13
2019-04-16T19:37:15.184Z,16.93
2019-04-16T19:39:46.651Z,16.99
2019-04-16T19:42:15.835Z,16.82
2019-04-16T19:44:45.528Z,16.80
2019-04-16T19:47:15.119Z,16.66
2019-04-16T19:49:44.452Z,16.72
2019-04-16T19:52:14.341Z,16.68
2019-04-16T19:54:44.903Z,16.71
2019-04-16T19:57:14.502Z,16.71
2019-04-16T19:59:46.397Z,16.64
2019-04-16T20:02:14.880Z,16.58
2019-04-16T20:04:45.030Z,16.57
2019-04-16T20:07:14.416Z,16.54
2019-04-16T20:09:43.766Z,16.48
2019-04-16T20:12:14.095Z,16.46
2019-04-16T20:14:43.416Z,16.44
2019-04-16T20:17:12.785Z,16.41
2019-04-16T20:20:00.712Z,16.35
2019-04-16T20:22:31.275Z,16.31
2019-04-16T20:25:00.607Z,16.25
2019-04-16T20:27:29.963Z,16.22
2019-04-16T20:29:59.555Z,16.12
2019-04-16T20:32:30.995Z,16.09
2019-04-16T20:35:00.750Z,16.08
2019-04-16T20:37:30.322Z,16.02
2019-04-16T20:39:59.678Z,15.87
2019-04-16T20:42:29.033Z,15.84
2019-04-16T20:44:59.019Z,15.79
2019-04-16T20:47:28.381Z,15.72
2019-04-16T20:49:57.731Z,15.63
2019-04-16T20:52:27.066Z,15.59
2019-04-16T20:54:56.414Z,15.58
2019-04-16T20:57:26.492Z,15.57
2019-04-16T20:59:57.258Z,15.55
2019-04-16T21:02:28.251Z,15.50
2019-04-16T21:05:01.686Z,15.42
2019-04-16T21:07:28.873Z,15.27
2019-04-16T21:09:59.871Z,15.22
2019-04-16T21:12:29.313Z,15.24
2019-04-16T21:14:58.648Z,15.20
2019-04-16T21:17:28.304Z,15.16
2019-04-16T21:19:58.152Z,15.12
2019-04-16T21:22:28.789Z,15.12
2019-04-16T21:24:58.637Z,15.06
2019-04-16T21:27:27.964Z,15.02
2019-04-16T21:29:57.398Z,14.93
2019-04-16T21:32:45.606Z,14.86
2019-04-16T21:35:17.749Z,14.81
2019-04-16T21:37:48.740Z,14.70
2019-04-16T21:40:23.124Z,14.58
2019-04-16T21:42:49.148Z,14.47
2019-04-16T21:45:18.497Z,14.35
2019-04-16T21:47:47.824Z,14.30
2019-04-16T21:50:17.174Z,14.20
2019-04-16T21:52:46.524Z,14.07
2019-04-16T21:55:15.859Z,13.94
2019-04-16T21:57:46.043Z,13.85
2019-04-16T22:00:34.618Z,13.73
2019-04-16T22:03:10.118Z,13.66
2019-04-16T22:05:38.460Z,13.54
2019-04-16T22:08:07.805Z,13.46
2019-04-16T22:10:37.161Z,13.39
2019-04-16T22:13:06.663Z,13.34
2019-04-16T22:15:35.992Z,13.26
2019-04-16T22:18:08.786Z,13.20
2019-04-16T22:20:36.654Z,13.17
2019-04-16T22:23:06.049Z,13.14
2019-04-16T22:25:35.387Z,13.14
2019-04-16T22:28:04.883Z,13.15
2019-04-16T22:30:34.543Z,13.17
2019-04-16T22:33:06.465Z,13.18
2019-04-16T22:35:35.714Z,13.20
2019-04-16T22:38:05.041Z,13.21
2019-04-16T22:40:47.938Z,13.19
2019-04-16T22:43:35.122Z,13.22
2019-04-16T22:46:06.397Z,13.29
2019-04-16T22:48:35.884Z,13.26
2019-04-16T22:51:09.686Z,13.32
2019-04-16T22:53:36.260Z,13.28
2019-04-16T22:56:05.618Z,13.35
2019-04-16T22:58:47.833Z,13.36
2019-04-16T23:01:18.936Z,13.40
2019-04-16T23:03:49.741Z,13.40
2019-04-16T23:06:20.280Z,13.39
2019-04-16T23:08:49.633Z,13.34
2019-04-16T23:11:23.309Z,13.32
2019-04-16T23:13:51.089Z,13.28
2019-04-16T23:16:20.521Z,13.24
2019-04-16T23:18:50.112Z,13.23
2019-04-16T23:21:19.514Z,13.18
2019-04-16T23:23:51.421Z,13.15
2019-04-16T23:26:19.917Z,13.14
2019-04-16T23:28:49.277Z,13.11
2019-04-16T23:31:19.624Z,13.08
2019-04-16T23:33:49.033Z,13.08
2019-04-16T23:36:19.198Z,13.07
2019-04-16T23:38:48.858Z,13.04
2019-04-16T23:41:18.205Z,13.04
2019-04-16T23:43:50.597Z,13.05
2019-04-16T23:46:28.310Z,13.05
2019-04-16T23:49:16.466Z,13.01
2019-04-16T23:52:01.758Z,13.04
2019-04-16T23:54:30.977Z,13.02
2019-04-16T23:57:01.976Z,12.98
2019-04-16T23:59:35.736Z,12.97
